sensor_id;sensor_type;location;lat;lon;timestamp;temperature;humidity
4103;DHT22;2065;49.790;9.620;2023-03-19T00:01:51;14.50;53.70
4103;DHT22;2065;49.790;9.620;2023-03-19T00:04:18;14.60;53.20
4103;DHT22;2065;49.790;9.620;2023-03-19T00:06:45;14.70;53.00
4103;DHT22;2065;49.790;9.620;2023-03-19T00:09:12;14.80;52.60
4103;DHT22;2065;49.790;9.620;2023-03-19T00:11:39;14.90;52.40
4103;DHT22;2065;49.790;9.620;2023-03-19T00:14:06;15.00;52.30
4103;DHT22;2065;49.790;9.620;2023-03-19T00:16:34;15.00;52.20
4103;DHT22;2065;49.790;9.620;2023-03-19T00:19:01;14.90;52.10
4103;DHT22;2065;49.790;9.620;2023-03-19T00:21:28;15.00;52.00
4103;DHT22;2065;49.790;9.620;2023-03-19T00:23:55;15.00;52.10
4103;DHT22;2065;49.790;9.620;2023-03-19T00:26:25;14.90;52.00
4103;DHT22;2065;49.790;9.620;2023-03-19T00:28:53;14.90;51.80
4103;DHT22;2065;49.790;9.620;2023-03-19T00:31:19;14.80;51.90
4103;DHT22;2065;49.790;9.620;2023-03-19T00:33:48;14.80;51.60
4103;DHT22;2065;49.790;9.620;2023-03-19T00:36:15;14.80;52.10
4103;DHT22;2065;49.790;9.620;2023-03-19T00:38:43;14.80;52.90
4103;DHT22;2065;49.790;9.620;2023-03-19T00:41:10;14.80;52.20
4103;DHT22;2065;49.790;9.620;2023-03-19T00:43:38;14.50;53.50
4103;DHT22;2065;49.790;9.620;2023-03-19T00:46:05;13.80;55.00
4103;DHT22;2065;49.790;9.620;2023-03-19T00:48:32;13.70;55.50
4103;DHT22;2065;49.790;9.620;2023-03-19T00:51:03;13.80;55.40
4103;DHT22;2065;49.790;9.620;2023-03-19T00:53:31;14.00;55.00
4103;DHT22;2065;49.790;9.620;2023-03-19T00:55:58;14.00;54.90
4103;DHT22;2065;49.790;9.620;2023-03-19T00:58:25;14.10;54.60
4103;DHT22;2065;49.790;9.620;2023-03-19T01:00:52;14.20;54.30
4103;DHT22;2065;49.790;9.620;2023-03-19T01:03:19;14.20;54.30
4103;DHT22;2065;49.790;9.620;2023-03-19T01:05:47;14.10;54.40
4103;DHT22;2065;49.790;9.620;2023-03-19T01:08:16;13.90;55.00
4103;DHT22;2065;49.790;9.620;2023-03-19T01:10:44;14.00;55.30
4103;DHT22;2065;49.790;9.620;2023-03-19T01:13:11;14.10;54.30
4103;DHT22;2065;49.790;9.620;2023-03-19T01:15:40;14.00;54.70
4103;DHT22;2065;49.790;9.620;2023-03-19T01:18:08;14.00;54.80
4103;DHT22;2065;49.790;9.620;2023-03-19T01:20:36;13.80;55.10
4103;DHT22;2065;49.790;9.620;2023-03-19T01:23:04;13.70;55.10
4103;DHT22;2065;49.790;9.620;2023-03-19T01:25:34;13.90;54.90
4103;DHT22;2065;49.790;9.620;2023-03-19T01:28:02;14.00;54.60
4103;DHT22;2065;49.790;9.620;2023-03-19T01:30:30;14.10;54.30
4103;DHT22;2065;49.790;9.620;2023-03-19T01:33:12;14.10;54.30
4103;DHT22;2065;49.790;9.620;2023-03-19T01:35:52;14.10;54.00
4103;DHT22;2065;49.790;9.620;2023-03-19T01:38:22;14.20;54.10
4103;DHT22;2065;49.790;9.620;2023-03-19T01:40:52;13.90;54.70
4103;DHT22;2065;49.790;9.620;2023-03-19T01:43:21;13.50;56.00
4103;DHT22;2065;49.790;9.620;2023-03-19T01:45:55;13.60;55.50
4103;DHT22;2065;49.790;9.620;2023-03-19T01:48:40;13.70;55.60
4103;DHT22;2065;49.790;9.620;2023-03-19T01:51:15;13.60;56.70
4103;DHT22;2065;49.790;9.620;2023-03-19T01:54:12;13.60;55.50
4103;DHT22;2065;49.790;9.620;2023-03-19T01:56:54;13.60;56.00
4103;DHT22;2065;49.790;9.620;2023-03-19T01:59:34;13.60;56.50
4103;DHT22;2065;49.790;9.620;2023-03-19T02:02:38;13.70;56.40
4103;DHT22;2065;49.790;9.620;2023-03-19T02:05:15;13.80;56.20
4103;DHT22;2065;49.790;9.620;2023-03-19T02:07:51;13.90;55.70
4103;DHT22;2065;49.790;9.620;2023-03-19T02:10:21;14.00;55.60
4103;DHT22;2065;49.790;9.620;2023-03-19T02:12:50;14.10;55.50
4103;DHT22;2065;49.790;9.620;2023-03-19T02:15:18;14.10;55.20
4103;DHT22;2065;49.790;9.620;2023-03-19T02:17:46;14.00;55.30
4103;DHT22;2065;49.790;9.620;2023-03-19T02:20:17;14.00;55.90
4103;DHT22;2065;49.790;9.620;2023-03-19T02:22:52;13.80;56.20
4103;DHT22;2065;49.790;9.620;2023-03-19T02:25:26;13.80;56.30
4103;DHT22;2065;49.790;9.620;2023-03-19T02:27:55;13.60;56.90
4103;DHT22;2065;49.790;9.620;2023-03-19T02:30:26;13.50;57.40
4103;DHT22;2065;49.790;9.620;2023-03-19T02:32:54;13.50;57.30
4103;DHT22;2065;49.790;9.620;2023-03-19T02:35:21;13.50;57.50
4103;DHT22;2065;49.790;9.620;2023-03-19T02:37:48;13.50;57.50
4103;DHT22;2065;49.790;9.620;2023-03-19T02:40:19;13.40;57.80
4103;DHT22;2065;49.790;9.620;2023-03-19T02:42:48;13.60;57.50
4103;DHT22;2065;49.790;9.620;2023-03-19T02:45:17;13.40;57.40
4103;DHT22;2065;49.790;9.620;2023-03-19T02:47:44;13.10;58.10
4103;DHT22;2065;49.790;9.620;2023-03-19T02:50:11;13.40;58.10
4103;DHT22;2065;49.790;9.620;2023-03-19T02:52:39;13.60;57.10
4103;DHT22;2065;49.790;9.620;2023-03-19T02:55:07;13.60;57.10
4103;DHT22;2065;49.790;9.620;2023-03-19T02:57:34;13.60;57.20
4103;DHT22;2065;49.790;9.620;2023-03-19T03:00:02;13.70;57.00
4103;DHT22;2065;49.790;9.620;2023-03-19T03:02:31;13.80;56.50
4103;DHT22;2065;49.790;9.620;2023-03-19T03:04:58;13.80;56.60
4103;DHT22;2065;49.790;9.620;2023-03-19T03:07:25;13.70;56.90
4103;DHT22;2065;49.790;9.620;2023-03-19T03:09:52;13.80;56.90
4103;DHT22;2065;49.790;9.620;2023-03-19T03:12:19;13.90;56.90
4103;DHT22;2065;49.790;9.620;2023-03-19T03:14:47;13.80;57.30
4103;DHT22;2065;49.790;9.620;2023-03-19T03:17:14;13.70;56.70
4103;DHT22;2065;49.790;9.620;2023-03-19T03:19:43;13.60;57.40
4103;DHT22;2065;49.790;9.620;2023-03-19T03:22:10;13.40;57.60
4103;DHT22;2065;49.790;9.620;2023-03-19T03:24:38;13.50;57.50
4103;DHT22;2065;49.790;9.620;2023-03-19T03:27:05;13.60;57.00
4103;DHT22;2065;49.790;9.620;2023-03-19T03:29:33;13.70;56.50
4103;DHT22;2065;49.790;9.620;2023-03-19T03:32:00;13.70;56.50
4103;DHT22;2065;49.790;9.620;2023-03-19T03:34:27;13.70;56.10
4103;DHT22;2065;49.790;9.620;2023-03-19T03:36:56;13.60;55.80
4103;DHT22;2065;49.790;9.620;2023-03-19T03:39:23;13.60;56.10
4103;DHT22;2065;49.790;9.620;2023-03-19T03:41:51;13.70;56.40
4103;DHT22;2065;49.790;9.620;2023-03-19T03:44:18;13.30;57.40
4103;DHT22;2065;49.790;9.620;2023-03-19T03:46:45;13.20;57.90
4103;DHT22;2065;49.790;9.620;2023-03-19T03:49:13;13.30;57.60
4103;DHT22;2065;49.790;9.620;2023-03-19T03:51:40;13.50;57.40
4103;DHT22;2065;49.790;9.620;2023-03-19T03:54:09;13.50;56.80
4103;DHT22;2065;49.790;9.620;2023-03-19T03:56:36;13.50;57.10
4103;DHT22;2065;49.790;9.620;2023-03-19T03:59:03;13.30;57.40
4103;DHT22;2065;49.790;9.620;2023-03-19T04:01:30;13.40;57.70
4103;DHT22;2065;49.790;9.620;2023-03-19T04:03:57;13.30;57.70
4103;DHT22;2065;49.790;9.620;2023-03-19T04:06:25;13.40;56.90
4103;DHT22;2065;49.790;9.620;2023-03-19T04:09:20;13.30;57.20
4103;DHT22;2065;49.790;9.620;2023-03-19T04:11:47;13.30;57.50
4103;DHT22;2065;49.790;9.620;2023-03-19T04:14:14;12.80;58.80
4103;DHT22;2065;49.790;9.620;2023-03-19T04:16:42;12.90;59.20
4103;DHT22;2065;49.790;9.620;2023-03-19T04:19:10;12.90;59.30
4103;DHT22;2065;49.790;9.620;2023-03-19T04:21:37;13.00;59.10
4103;DHT22;2065;49.790;9.620;2023-03-19T04:24:04;13.30;58.60
4103;DHT22;2065;49.790;9.620;2023-03-19T04:26:33;13.30;58.30
4103;DHT22;2065;49.790;9.620;2023-03-19T04:29:01;13.40;58.20
4103;DHT22;2065;49.790;9.620;2023-03-19T04:31:29;13.50;57.90
4103;DHT22;2065;49.790;9.620;2023-03-19T04:33:56;13.60;57.40
4103;DHT22;2065;49.790;9.620;2023-03-19T04:36:23;13.50;56.80
4103;DHT22;2065;49.790;9.620;2023-03-19T04:38:50;13.40;57.30
4103;DHT22;2065;49.790;9.620;2023-03-19T04:41:18;13.10;58.30
4103;DHT22;2065;49.790;9.620;2023-03-19T04:44:00;13.10;58.70
4103;DHT22;2065;49.790;9.620;2023-03-19T04:46:28;13.30;58.30
4103;DHT22;2065;49.790;9.620;2023-03-19T04:48:55;13.20;58.60
4103;DHT22;2065;49.790;9.620;2023-03-19T04:51:22;13.40;58.50
4103;DHT22;2065;49.790;9.620;2023-03-19T04:53:50;13.50;58.30
4103;DHT22;2065;49.790;9.620;2023-03-19T04:56:17;13.40;58.50
4103;DHT22;2065;49.790;9.620;2023-03-19T04:58:44;13.50;58.40
4103;DHT22;2065;49.790;9.620;2023-03-19T05:01:13;13.50;58.20
4103;DHT22;2065;49.790;9.620;2023-03-19T05:04:02;13.60;57.90
4103;DHT22;2065;49.790;9.620;2023-03-19T05:06:31;13.70;57.10
4103;DHT22;2065;49.790;9.620;2023-03-19T05:08:59;13.70;57.20
4103;DHT22;2065;49.790;9.620;2023-03-19T05:11:26;13.70;57.60
4103;DHT22;2065;49.790;9.620;2023-03-19T05:14:05;13.50;57.90
4103;DHT22;2065;49.790;9.620;2023-03-19T05:16:45;13.40;58.40
4103;DHT22;2065;49.790;9.620;2023-03-19T05:19:12;13.50;58.20
4103;DHT22;2065;49.790;9.620;2023-03-19T05:21:39;13.60;58.00
4103;DHT22;2065;49.790;9.620;2023-03-19T05:24:08;13.40;58.30
4103;DHT22;2065;49.790;9.620;2023-03-19T05:26:36;13.40;58.70
4103;DHT22;2065;49.790;9.620;2023-03-19T05:29:18;13.40;58.60
4103;DHT22;2065;49.790;9.620;2023-03-19T05:32:12;13.50;58.50
4103;DHT22;2065;49.790;9.620;2023-03-19T05:34:41;13.60;58.00
4103;DHT22;2065;49.790;9.620;2023-03-19T05:37:08;13.70;57.80
4103;DHT22;2065;49.790;9.620;2023-03-19T05:39:35;13.60;58.20
4103;DHT22;2065;49.790;9.620;2023-03-19T05:42:06;13.50;58.20
4103;DHT22;2065;49.790;9.620;2023-03-19T05:44:33;13.60;57.90
4103;DHT22;2065;49.790;9.620;2023-03-19T05:47:21;13.50;57.90
4103;DHT22;2065;49.790;9.620;2023-03-19T05:49:53;13.20;59.20
4103;DHT22;2065;49.790;9.620;2023-03-19T05:52:19;13.30;59.00
4103;DHT22;2065;49.790;9.620;2023-03-19T05:54:47;13.40;59.00
4103;DHT22;2065;49.790;9.620;2023-03-19T05:57:44;13.20;59.10
4103;DHT22;2065;49.790;9.620;2023-03-19T06:00:17;13.20;59.20
4103;DHT22;2065;49.790;9.620;2023-03-19T06:02:48;13.00;59.50
4103;DHT22;2065;49.790;9.620;2023-03-19T06:05:34;12.80;60.30
4103;DHT22;2065;49.790;9.620;2023-03-19T06:08:17;13.00;60.20
4103;DHT22;2065;49.790;9.620;2023-03-19T06:11:04;13.20;59.80
4103;DHT22;2065;49.790;9.620;2023-03-19T06:13:33;13.40;59.20
4103;DHT22;2065;49.790;9.620;2023-03-19T06:16:12;13.50;58.40
4103;DHT22;2065;49.790;9.620;2023-03-19T06:18:47;13.30;58.90
4103;DHT22;2065;49.790;9.620;2023-03-19T06:21:16;13.00;59.80
4103;DHT22;2065;49.790;9.620;2023-03-19T06:23:43;12.90;60.10
4103;DHT22;2065;49.790;9.620;2023-03-19T06:26:13;13.10;60.40
4103;DHT22;2065;49.790;9.620;2023-03-19T06:28:51;13.30;59.60
4103;DHT22;2065;49.790;9.620;2023-03-19T06:31:19;13.40;59.20
4103;DHT22;2065;49.790;9.620;2023-03-19T06:33:53;13.60;59.30
4103;DHT22;2065;49.790;9.620;2023-03-19T06:36:23;13.60;59.70
4103;DHT22;2065;49.790;9.620;2023-03-19T06:38:51;13.70;59.40
4103;DHT22;2065;49.790;9.620;2023-03-19T06:41:17;13.80;59.00
4103;DHT22;2065;49.790;9.620;2023-03-19T06:43:47;13.30;59.80
4103;DHT22;2065;49.790;9.620;2023-03-19T06:46:14;13.20;60.60
4103;DHT22;2065;49.790;9.620;2023-03-19T06:48:41;13.10;60.70
4103;DHT22;2065;49.790;9.620;2023-03-19T06:51:09;13.00;61.60
4103;DHT22;2065;49.790;9.620;2023-03-19T06:53:36;13.20;61.60
4103;DHT22;2065;49.790;9.620;2023-03-19T06:56:03;13.30;61.30
4103;DHT22;2065;49.790;9.620;2023-03-19T06:58:30;13.40;61.30
4103;DHT22;2065;49.790;9.620;2023-03-19T07:00:58;13.60;60.90
4103;DHT22;2065;49.790;9.620;2023-03-19T07:03:26;13.70;60.30
4103;DHT22;2065;49.790;9.620;2023-03-19T07:05:53;13.70;60.50
4103;DHT22;2065;49.790;9.620;2023-03-19T07:08:22;13.70;60.50
4103;DHT22;2065;49.790;9.620;2023-03-19T07:10:54;13.70;60.50
4103;DHT22;2065;49.790;9.620;2023-03-19T07:13:22;13.70;60.60
4103;DHT22;2065;49.790;9.620;2023-03-19T07:15:49;13.80;60.00
4103;DHT22;2065;49.790;9.620;2023-03-19T07:18:17;13.80;60.40
4103;DHT22;2065;49.790;9.620;2023-03-19T07:20:45;13.70;60.60
4103;DHT22;2065;49.790;9.620;2023-03-19T07:23:12;13.70;60.30
4103;DHT22;2065;49.790;9.620;2023-03-19T07:25:41;13.80;60.20
4103;DHT22;2065;49.790;9.620;2023-03-19T07:28:08;13.60;60.80
4103;DHT22;2065;49.790;9.620;2023-03-19T07:30:36;13.40;61.20
4103;DHT22;2065;49.790;9.620;2023-03-19T07:33:03;13.60;61.40
4103;DHT22;2065;49.790;9.620;2023-03-19T07:35:32;13.80;60.90
4103;DHT22;2065;49.790;9.620;2023-03-19T07:37:59;13.90;60.20
4103;DHT22;2065;49.790;9.620;2023-03-19T07:40:27;14.10;59.80
4103;DHT22;2065;49.790;9.620;2023-03-19T07:42:55;14.20;59.40
4103;DHT22;2065;49.790;9.620;2023-03-19T07:45:22;14.20;59.20
4103;DHT22;2065;49.790;9.620;2023-03-19T07:47:49;14.00;59.80
4103;DHT22;2065;49.790;9.620;2023-03-19T07:50:17;14.00;60.10
4103;DHT22;2065;49.790;9.620;2023-03-19T07:52:44;14.10;60.00
4103;DHT22;2065;49.790;9.620;2023-03-19T07:55:11;14.20;59.60
4103;DHT22;2065;49.790;9.620;2023-03-19T07:57:38;14.30;59.90
4103;DHT22;2065;49.790;9.620;2023-03-19T08:00:09;14.50;59.10
4103;DHT22;2065;49.790;9.620;2023-03-19T08:02:42;14.50;58.80
4103;DHT22;2065;49.790;9.620;2023-03-19T08:05:10;14.40;59.50
4103;DHT22;2065;49.790;9.620;2023-03-19T08:07:37;14.40;59.50
4103;DHT22;2065;49.790;9.620;2023-03-19T08:10:05;14.60;59.60
4103;DHT22;2065;49.790;9.620;2023-03-19T08:12:32;14.70;59.40
4103;DHT22;2065;49.790;9.620;2023-03-19T08:15:07;14.90;59.00
4103;DHT22;2065;49.790;9.620;2023-03-19T08:17:34;14.80;59.00
4103;DHT22;2065;49.790;9.620;2023-03-19T08:20:04;14.60;59.40
4103;DHT22;2065;49.790;9.620;2023-03-19T08:22:33;14.60;59.60
4103;DHT22;2065;49.790;9.620;2023-03-19T08:25:01;14.80;59.30
4103;DHT22;2065;49.790;9.620;2023-03-19T08:27:28;14.80;59.40
4103;DHT22;2065;49.790;9.620;2023-03-19T08:29:56;14.60;59.80
4103;DHT22;2065;49.790;9.620;2023-03-19T08:32:25;14.70;59.70
4103;DHT22;2065;49.790;9.620;2023-03-19T08:34:52;14.70;59.60
4103;DHT22;2065;49.790;9.620;2023-03-19T08:37:19;14.70;59.20
4103;DHT22;2065;49.790;9.620;2023-03-19T08:39:48;14.50;59.70
4103;DHT22;2065;49.790;9.620;2023-03-19T08:42:15;14.60;59.70
4103;DHT22;2065;49.790;9.620;2023-03-19T08:44:42;14.60;59.80
4103;DHT22;2065;49.790;9.620;2023-03-19T08:47:09;14.60;59.90
4103;DHT22;2065;49.790;9.620;2023-03-19T08:49:38;14.60;60.20
4103;DHT22;2065;49.790;9.620;2023-03-19T08:52:06;14.80;60.20
4103;DHT22;2065;49.790;9.620;2023-03-19T08:54:33;15.00;59.90
4103;DHT22;2065;49.790;9.620;2023-03-19T08:56:59;15.10;59.70
4103;DHT22;2065;49.790;9.620;2023-03-19T08:59:26;15.20;59.90
4103;DHT22;2065;49.790;9.620;2023-03-19T09:01:54;15.20;60.40
4103;DHT22;2065;49.790;9.620;2023-03-19T09:04:21;15.30;60.60
4103;DHT22;2065;49.790;9.620;2023-03-19T09:06:49;15.40;59.70
4103;DHT22;2065;49.790;9.620;2023-03-19T09:09:17;15.60;59.30
4103;DHT22;2065;49.790;9.620;2023-03-19T09:11:45;15.70;58.80
4103;DHT22;2065;49.790;9.620;2023-03-19T09:14:12;16.10;58.60
4103;DHT22;2065;49.790;9.620;2023-03-19T09:16:41;16.40;58.20
4103;DHT22;2065;49.790;9.620;2023-03-19T09:19:09;16.60;56.80
4103;DHT22;2065;49.790;9.620;2023-03-19T09:21:36;16.60;56.30
4103;DHT22;2065;49.790;9.620;2023-03-19T09:24:05;16.70;56.90
4103;DHT22;2065;49.790;9.620;2023-03-19T09:26:32;16.80;55.90
4103;DHT22;2065;49.790;9.620;2023-03-19T09:29:00;16.70;55.90
4103;DHT22;2065;49.790;9.620;2023-03-19T09:31:28;16.80;56.10
4103;DHT22;2065;49.790;9.620;2023-03-19T09:33:55;16.70;56.40
4103;DHT22;2065;49.790;9.620;2023-03-19T09:36:22;16.70;56.10
4103;DHT22;2065;49.790;9.620;2023-03-19T09:38:49;16.50;55.60
4103;DHT22;2065;49.790;9.620;2023-03-19T09:41:25;16.50;56.90
4103;DHT22;2065;49.790;9.620;2023-03-19T09:44:01;16.40;56.80
4103;DHT22;2065;49.790;9.620;2023-03-19T09:46:33;16.70;56.80
4103;DHT22;2065;49.790;9.620;2023-03-19T09:49:06;17.00;56.50
4103;DHT22;2065;49.790;9.620;2023-03-19T09:51:42;17.10;55.60
4103;DHT22;2065;49.790;9.620;2023-03-19T09:54:21;17.10;55.00
4103;DHT22;2065;49.790;9.620;2023-03-19T09:56:52;17.10;55.50
4103;DHT22;2065;49.790;9.620;2023-03-19T09:59:21;17.30;55.90
4103;DHT22;2065;49.790;9.620;2023-03-19T10:01:53;17.70;55.30
4103;DHT22;2065;49.790;9.620;2023-03-19T10:04:38;17.70;54.40
4103;DHT22;2065;49.790;9.620;2023-03-19T10:07:28;17.40;54.80
4103;DHT22;2065;49.790;9.620;2023-03-19T10:10:20;17.00;54.80
4103;DHT22;2065;49.790;9.620;2023-03-19T10:12:58;17.20;54.70
4103;DHT22;2065;49.790;9.620;2023-03-19T10:15:27;17.30;54.10
4103;DHT22;2065;49.790;9.620;2023-03-19T10:17:57;17.40;54.10
4103;DHT22;2065;49.790;9.620;2023-03-19T10:20:33;17.50;54.60
4103;DHT22;2065;49.790;9.620;2023-03-19T10:23:28;17.80;54.40
4103;DHT22;2065;49.790;9.620;2023-03-19T10:26:00;18.20;54.40
4103;DHT22;2065;49.790;9.620;2023-03-19T10:28:29;18.80;53.70
4103;DHT22;2065;49.790;9.620;2023-03-19T10:31:05;19.00;50.40
4103;DHT22;2065;49.790;9.620;2023-03-19T10:33:42;19.20;50.40
4103;DHT22;2065;49.790;9.620;2023-03-19T10:36:11;18.90;50.00
4103;DHT22;2065;49.790;9.620;2023-03-19T10:38:41;18.70;50.90
4103;DHT22;2065;49.790;9.620;2023-03-19T10:41:30;18.30;51.00
4103;DHT22;2065;49.790;9.620;2023-03-19T10:44:01;18.40;52.10
4103;DHT22;2065;49.790;9.620;2023-03-19T10:46:36;18.70;50.80
4103;DHT22;2065;49.790;9.620;2023-03-19T10:49:03;18.70;50.60
4103;DHT22;2065;49.790;9.620;2023-03-19T10:51:30;18.70;48.70
4103;DHT22;2065;49.790;9.620;2023-03-19T10:53:59;18.50;49.70
4103;DHT22;2065;49.790;9.620;2023-03-19T10:56:28;18.80;50.30
4103;DHT22;2065;49.790;9.620;2023-03-19T10:59:02;19.00;49.80
4103;DHT22;2065;49.790;9.620;2023-03-19T11:01:32;18.70;49.80
4103;DHT22;2065;49.790;9.620;2023-03-19T11:04:00;18.70;51.50
4103;DHT22;2065;49.790;9.620;2023-03-19T11:06:31;19.00;49.80
4103;DHT22;2065;49.790;9.620;2023-03-19T11:09:00;19.40;49.10
4103;DHT22;2065;49.790;9.620;2023-03-19T11:11:34;19.60;46.60
4103;DHT22;2065;49.790;9.620;2023-03-19T11:14:08;19.60;47.80
4103;DHT22;2065;49.790;9.620;2023-03-19T11:16:50;19.90;48.00
4103;DHT22;2065;49.790;9.620;2023-03-19T11:19:20;20.10;45.70
4103;DHT22;2065;49.790;9.620;2023-03-19T11:22:07;20.10;46.70
4103;DHT22;2065;49.790;9.620;2023-03-19T11:24:37;20.40;47.10
4103;DHT22;2065;49.790;9.620;2023-03-19T11:27:05;20.60;45.40
4103;DHT22;2065;49.790;9.620;2023-03-19T11:29:38;20.50;45.60
4103;DHT22;2065;49.790;9.620;2023-03-19T11:32:18;20.80;45.10
4103;DHT22;2065;49.790;9.620;2023-03-19T11:34:51;21.00;45.80
4103;DHT22;2065;49.790;9.620;2023-03-19T11:37:27;21.10;44.70
4103;DHT22;2065;49.790;9.620;2023-03-19T11:40:01;20.70;44.80
4103;DHT22;2065;49.790;9.620;2023-03-19T11:42:50;20.70;45.70
4103;DHT22;2065;49.790;9.620;2023-03-19T11:45:27;20.90;44.40
4103;DHT22;2065;49.790;9.620;2023-03-19T11:48:05;21.40;45.50
4103;DHT22;2065;49.790;9.620;2023-03-19T11:50:42;21.80;43.90
4103;DHT22;2065;49.790;9.620;2023-03-19T11:53:19;21.60;42.50
4103;DHT22;2065;49.790;9.620;2023-03-19T11:55:53;21.80;44.40
4103;DHT22;2065;49.790;9.620;2023-03-19T11:58:44;22.30;42.00
4103;DHT22;2065;49.790;9.620;2023-03-19T12:01:24;22.50;41.00
4103;DHT22;2065;49.790;9.620;2023-03-19T12:04:24;22.10;41.10
4103;DHT22;2065;49.790;9.620;2023-03-19T12:07:04;22.20;42.90
4103;DHT22;2065;49.790;9.620;2023-03-19T12:09:37;22.50;41.70
4103;DHT22;2065;49.790;9.620;2023-03-19T12:12:16;22.90;41.50
4103;DHT22;2065;49.790;9.620;2023-03-19T12:14:58;23.20;39.10
4103;DHT22;2065;49.790;9.620;2023-03-19T12:17:51;23.30;36.60
4103;DHT22;2065;49.790;9.620;2023-03-19T12:20:39;23.10;36.90
4103;DHT22;2065;49.790;9.620;2023-03-19T12:23:16;22.90;37.50
4103;DHT22;2065;49.790;9.620;2023-03-19T12:25:57;22.60;38.20
4103;DHT22;2065;49.790;9.620;2023-03-19T12:28:30;22.60;38.50
4103;DHT22;2065;49.790;9.620;2023-03-19T12:31:27;22.70;37.70
4103;DHT22;2065;49.790;9.620;2023-03-19T12:34:11;22.70;36.80
4103;DHT22;2065;49.790;9.620;2023-03-19T12:36:48;22.60;36.20
4103;DHT22;2065;49.790;9.620;2023-03-19T12:39:19;22.10;37.30
4103;DHT22;2065;49.790;9.620;2023-03-19T12:41:49;21.80;39.00
4103;DHT22;2065;49.790;9.620;2023-03-19T12:44:20;21.60;39.10
4103;DHT22;2065;49.790;9.620;2023-03-19T12:46:53;21.40;38.90
4103;DHT22;2065;49.790;9.620;2023-03-19T12:49:27;21.60;39.60
4103;DHT22;2065;49.790;9.620;2023-03-19T12:51:59;21.70;38.20
4103;DHT22;2065;49.790;9.620;2023-03-19T12:54:31;21.70;37.70
4103;DHT22;2065;49.790;9.620;2023-03-19T12:57:05;21.50;37.90
4103;DHT22;2065;49.790;9.620;2023-03-19T12:59:36;21.50;37.60
4103;DHT22;2065;49.790;9.620;2023-03-19T13:02:12;21.80;38.70
4103;DHT22;2065;49.790;9.620;2023-03-19T13:04:50;22.00;37.30
4103;DHT22;2065;49.790;9.620;2023-03-19T13:07:21;21.80;37.00
4103;DHT22;2065;49.790;9.620;2023-03-19T13:09:52;22.10;37.50
4103;DHT22;2065;49.790;9.620;2023-03-19T13:12:22;22.30;37.60
4103;DHT22;2065;49.790;9.620;2023-03-19T13:14:55;22.20;37.50
4103;DHT22;2065;49.790;9.620;2023-03-19T13:17:30;22.30;37.50
4103;DHT22;2065;49.790;9.620;2023-03-19T13:20:12;22.20;36.50
4103;DHT22;2065;49.790;9.620;2023-03-19T13:22:40;22.20;36.50
4103;DHT22;2065;49.790;9.620;2023-03-19T13:25:13;22.40;36.40
4103;DHT22;2065;49.790;9.620;2023-03-19T13:27:42;22.50;36.90
4103;DHT22;2065;49.790;9.620;2023-03-19T13:30:16;22.60;37.50
4103;DHT22;2065;49.790;9.620;2023-03-19T13:32:47;22.80;36.80
4103;DHT22;2065;49.790;9.620;2023-03-19T13:35:35;22.40;36.40
4103;DHT22;2065;49.790;9.620;2023-03-19T13:38:11;22.80;36.70
4103;DHT22;2065;49.790;9.620;2023-03-19T13:40:42;23.00;35.90
4103;DHT22;2065;49.790;9.620;2023-03-19T13:43:22;23.00;36.90
4103;DHT22;2065;49.790;9.620;2023-03-19T13:45:51;22.80;35.60
4103;DHT22;2065;49.790;9.620;2023-03-19T13:48:23;22.80;35.70
4103;DHT22;2065;49.790;9.620;2023-03-19T13:51:03;22.60;35.40
4103;DHT22;2065;49.790;9.620;2023-03-19T13:53:38;22.10;35.90
4103;DHT22;2065;49.790;9.620;2023-03-19T13:56:09;22.00;37.00
4103;DHT22;2065;49.790;9.620;2023-03-19T13:58:46;21.70;37.00
4103;DHT22;2065;49.790;9.620;2023-03-19T14:01:47;21.80;37.80
4103;DHT22;2065;49.790;9.620;2023-03-19T14:04:19;22.00;38.30
4103;DHT22;2065;49.790;9.620;2023-03-19T14:06:50;21.80;39.30
4103;DHT22;2065;49.790;9.620;2023-03-19T14:09:34;21.90;40.00
4103;DHT22;2065;49.790;9.620;2023-03-19T14:14:54;22.00;40.50
4103;DHT22;2065;49.790;9.620;2023-03-19T14:17:24;22.00;39.70
4103;DHT22;2065;49.790;9.620;2023-03-19T14:19:53;21.90;39.50
4103;DHT22;2065;49.790;9.620;2023-03-19T14:22:34;21.90;39.40
4103;DHT22;2065;49.790;9.620;2023-03-19T14:25:15;22.00;38.90
4103;DHT22;2065;49.790;9.620;2023-03-19T14:27:44;21.80;39.00
4103;DHT22;2065;49.790;9.620;2023-03-19T14:30:24;21.80;39.30
4103;DHT22;2065;49.790;9.620;2023-03-19T14:32:54;21.80;38.80
4103;DHT22;2065;49.790;9.620;2023-03-19T14:35:24;21.70;38.80
4103;DHT22;2065;49.790;9.620;2023-03-19T14:37:53;21.60;38.40
4103;DHT22;2065;49.790;9.620;2023-03-19T14:40:23;21.40;38.50
4103;DHT22;2065;49.790;9.620;2023-03-19T14:42:59;21.10;39.60
4103;DHT22;2065;49.790;9.620;2023-03-19T14:45:38;21.00;41.10
4103;DHT22;2065;49.790;9.620;2023-03-19T14:48:41;20.80;42.60
4103;DHT22;2065;49.790;9.620;2023-03-19T14:51:29;20.70;43.60
4103;DHT22;2065;49.790;9.620;2023-03-19T14:54:04;20.50;43.40
4103;DHT22;2065;49.790;9.620;2023-03-19T14:56:34;20.40;43.50
4103;DHT22;2065;49.790;9.620;2023-03-19T14:59:01;20.20;43.50
4103;DHT22;2065;49.790;9.620;2023-03-19T15:01:32;20.10;44.20
4103;DHT22;2065;49.790;9.620;2023-03-19T15:04:03;19.90;44.20
4103;DHT22;2065;49.790;9.620;2023-03-19T15:06:34;19.80;43.10
4103;DHT22;2065;49.790;9.620;2023-03-19T15:09:05;19.80;43.20
4103;DHT22;2065;49.790;9.620;2023-03-19T15:14:40;19.80;43.00
4103;DHT22;2065;49.790;9.620;2023-03-19T15:17:16;19.90;42.70
4103;DHT22;2065;49.790;9.620;2023-03-19T15:19:44;19.90;42.40
4103;DHT22;2065;49.790;9.620;2023-03-19T15:22:13;19.80;43.00
4103;DHT22;2065;49.790;9.620;2023-03-19T15:24:42;19.70;42.40
4103;DHT22;2065;49.790;9.620;2023-03-19T15:27:20;19.50;42.40
4103;DHT22;2065;49.790;9.620;2023-03-19T15:29:48;19.80;42.60
4103;DHT22;2065;49.790;9.620;2023-03-19T15:32:30;19.90;42.20
4103;DHT22;2065;49.790;9.620;2023-03-19T15:34:58;20.00;42.40
4103;DHT22;2065;49.790;9.620;2023-03-19T15:37:27;20.30;42.50
4103;DHT22;2065;49.790;9.620;2023-03-19T15:39:57;20.50;42.20
4103;DHT22;2065;49.790;9.620;2023-03-19T15:42:28;20.70;42.20
4103;DHT22;2065;49.790;9.620;2023-03-19T15:45:04;20.50;42.20
4103;DHT22;2065;49.790;9.620;2023-03-19T15:47:38;20.60;41.00
4103;DHT22;2065;49.790;9.620;2023-03-19T15:50:09;20.60;41.80
4103;DHT22;2065;49.790;9.620;2023-03-19T15:52:40;20.50;41.60
4103;DHT22;2065;49.790;9.620;2023-03-19T15:55:09;20.50;42.50
4103;DHT22;2065;49.790;9.620;2023-03-19T15:57:39;20.70;41.60
4103;DHT22;2065;49.790;9.620;2023-03-19T16:00:10;20.50;40.40
4103;DHT22;2065;49.790;9.620;2023-03-19T16:02:40;20.10;40.60
4103;DHT22;2065;49.790;9.620;2023-03-19T16:05:22;19.80;41.10
4103;DHT22;2065;49.790;9.620;2023-03-19T16:07:52;19.60;42.50
4103;DHT22;2065;49.790;9.620;2023-03-19T16:10:32;19.60;42.60
4103;DHT22;2065;49.790;9.620;2023-03-19T16:12:59;19.80;42.70
4103;DHT22;2065;49.790;9.620;2023-03-19T16:15:32;20.10;42.90
4103;DHT22;2065;49.790;9.620;2023-03-19T16:18:22;20.10;41.50
4103;DHT22;2065;49.790;9.620;2023-03-19T16:20:59;19.90;42.40
4103;DHT22;2065;49.790;9.620;2023-03-19T16:23:30;19.60;43.00
4103;DHT22;2065;49.790;9.620;2023-03-19T16:26:06;19.70;43.20
4103;DHT22;2065;49.790;9.620;2023-03-19T16:28:41;19.80;43.40
4103;DHT22;2065;49.790;9.620;2023-03-19T16:31:21;20.00;43.40
4103;DHT22;2065;49.790;9.620;2023-03-19T16:33:49;20.10;43.30
4103;DHT22;2065;49.790;9.620;2023-03-19T16:36:19;20.20;43.50
4103;DHT22;2065;49.790;9.620;2023-03-19T16:38:53;20.10;43.60